sensor_id;sensor_type;location;lat;lon;timestamp;P1;durP1;ratioP1;P2;durP2;ratioP2
33327;SDS011;19692;52.998;9.116;2022-11-21T00:00:31;28.43;;;18.57;;
33327;SDS011;19692;52.998;9.116;2022-11-21T00:03:17;27.20;;;18.37;;
33327;SDS011;19692;52.998;9.116;2022-11-21T00:06:03;24.30;;;16.67;;
33327;SDS011;19692;52.998;9.116;2022-11-21T00:08:49;22.33;;;15.67;;
33327;SDS011;19692;52.998;9.116;2022-11-21T00:11:35;23.43;;;16.13;;
33327;SDS011;19692;52.998;9.116;2022-11-21T00:14:20;23.20;;;16.40;;
33327;SDS011;19692;52.998;9.116;2022-11-21T00:17:06;23.17;;;15.80;;
33327;SDS011;19692;52.998;9.116;2022-11-21T00:19:52;21.30;;;14.97;;
33327;SDS011;19692;52.998;9.116;2022-11-21T00:22:37;22.67;;;14.50;;
33327;SDS011;19692;52.998;9.116;2022-11-21T00:25:23;21.97;;;15.00;;
33327;SDS011;19692;52.998;9.116;2022-11-21T00:28:09;24.53;;;15.60;;
33327;SDS011;19692;52.998;9.116;2022-11-21T00:30:54;21.80;;;15.57;;
33327;SDS011;19692;52.998;9.116;2022-11-21T00:33:40;23.27;;;15.93;;
33327;SDS011;19692;52.998;9.116;2022-11-21T00:36:26;24.73;;;17.27;;
33327;SDS011;19692;52.998;9.116;2022-11-21T00:39:11;26.57;;;19.30;;
33327;SDS011;19692;52.998;9.116;2022-11-21T00:41:57;24.93;;;16.57;;
33327;SDS011;19692;52.998;9.116;2022-11-21T00:44:43;23.57;;;16.07;;
33327;SDS011;19692;52.998;9.116;2022-11-21T00:47:28;24.47;;;15.37;;
33327;SDS011;19692;52.998;9.116;2022-11-21T00:50:14;23.40;;;16.77;;
33327;SDS011;19692;52.998;9.116;2022-11-21T00:53:00;27.10;;;17.93;;
33327;SDS011;19692;52.998;9.116;2022-11-21T00:55:45;25.03;;;17.00;;
33327;SDS011;19692;52.998;9.116;2022-11-21T00:58:31;26.10;;;16.43;;
33327;SDS011;19692;52.998;9.116;2022-11-21T01:01:17;26.03;;;16.93;;
33327;SDS011;19692;52.998;9.116;2022-11-21T01:04:03;27.00;;;17.60;;
33327;SDS011;19692;52.998;9.116;2022-11-21T01:06:49;25.57;;;16.70;;
33327;SDS011;19692;52.998;9.116;2022-11-21T01:09:34;25.13;;;16.63;;
33327;SDS011;19692;52.998;9.116;2022-11-21T01:12:20;26.87;;;17.53;;
33327;SDS011;19692;52.998;9.116;2022-11-21T01:15:06;29.87;;;18.27;;
33327;SDS011;19692;52.998;9.116;2022-11-21T01:17:52;26.20;;;17.83;;
33327;SDS011;19692;52.998;9.116;2022-11-21T01:20:38;26.53;;;17.70;;
33327;SDS011;19692;52.998;9.116;2022-11-21T01:23:24;28.07;;;18.53;;
33327;SDS011;19692;52.998;9.116;2022-11-21T01:26:11;28.43;;;19.33;;
33327;SDS011;19692;52.998;9.116;2022-11-21T01:29:00;29.67;;;19.77;;
33327;SDS011;19692;52.998;9.116;2022-11-21T01:31:46;28.47;;;18.43;;
33327;SDS011;19692;52.998;9.116;2022-11-21T01:34:31;28.30;;;17.43;;
33327;SDS011;19692;52.998;9.116;2022-11-21T01:37:17;28.27;;;18.63;;
33327;SDS011;19692;52.998;9.116;2022-11-21T01:40:03;28.50;;;19.63;;
33327;SDS011;19692;52.998;9.116;2022-11-21T01:42:53;29.87;;;18.53;;
33327;SDS011;19692;52.998;9.116;2022-11-21T01:45:57;27.23;;;18.43;;
33327;SDS011;19692;52.998;9.116;2022-11-21T01:49:08;27.97;;;18.03;;
33327;SDS011;19692;52.998;9.116;2022-11-21T01:52:03;28.63;;;18.17;;
33327;SDS011;19692;52.998;9.116;2022-11-21T01:55:01;28.50;;;18.33;;
33327;SDS011;19692;52.998;9.116;2022-11-21T01:57:52;28.23;;;19.27;;
33327;SDS011;19692;52.998;9.116;2022-11-21T02:00:37;28.53;;;18.57;;
33327;SDS011;19692;52.998;9.116;2022-11-21T02:03:06;30.87;;;18.83;;
33327;SDS011;19692;52.998;9.116;2022-11-21T02:05:37;28.43;;;18.83;;
33327;SDS011;19692;52.998;9.116;2022-11-21T02:08:08;27.50;;;18.03;;
33327;SDS011;19692;52.998;9.116;2022-11-21T02:10:40;28.93;;;19.03;;
33327;SDS011;19692;52.998;9.116;2022-11-21T02:13:12;28.70;;;18.07;;
33327;SDS011;19692;52.998;9.116;2022-11-21T02:15:38;30.97;;;19.27;;
33327;SDS011;19692;52.998;9.116;2022-11-21T02:18:05;26.47;;;17.87;;
33327;SDS011;19692;52.998;9.116;2022-11-21T02:20:33;29.23;;;18.57;;
33327;SDS011;19692;52.998;9.116;2022-11-21T02:25:36;27.33;;;18.50;;
33327;SDS011;19692;52.998;9.116;2022-11-21T02:28:06;30.13;;;19.40;;
33327;SDS011;19692;52.998;9.116;2022-11-21T02:30:36;26.17;;;17.57;;
33327;SDS011;19692;52.998;9.116;2022-11-21T02:33:05;31.13;;;19.40;;
33327;SDS011;19692;52.998;9.116;2022-11-21T02:35:31;30.37;;;19.47;;
33327;SDS011;19692;52.998;9.116;2022-11-21T02:40:58;28.03;;;17.30;;
33327;SDS011;19692;52.998;9.116;2022-11-21T02:43:32;28.40;;;18.67;;
33327;SDS011;19692;52.998;9.116;2022-11-21T02:46:05;26.30;;;17.47;;
33327;SDS011;19692;52.998;9.116;2022-11-21T02:48:31;26.23;;;17.50;;
33327;SDS011;19692;52.998;9.116;2022-11-21T02:50:57;26.27;;;17.17;;
33327;SDS011;19692;52.998;9.116;2022-11-21T02:53:22;26.97;;;17.77;;
33327;SDS011;19692;52.998;9.116;2022-11-21T02:55:48;25.50;;;17.07;;
33327;SDS011;19692;52.998;9.116;2022-11-21T02:58:14;25.70;;;17.43;;
33327;SDS011;19692;52.998;9.116;2022-11-21T03:00:40;23.70;;;16.93;;
33327;SDS011;19692;52.998;9.116;2022-11-21T03:03:06;25.50;;;16.53;;
33327;SDS011;19692;52.998;9.116;2022-11-21T03:05:32;24.73;;;16.17;;
33327;SDS011;19692;52.998;9.116;2022-11-21T03:07:58;22.07;;;15.87;;
33327;SDS011;19692;52.998;9.116;2022-11-21T03:10:24;23.80;;;16.23;;
33327;SDS011;19692;52.998;9.116;2022-11-21T03:12:50;24.03;;;16.80;;
33327;SDS011;19692;52.998;9.116;2022-11-21T03:15:24;24.70;;;15.87;;
33327;SDS011;19692;52.998;9.116;2022-11-21T03:17:52;23.57;;;16.53;;
33327;SDS011;19692;52.998;9.116;2022-11-21T03:20:18;25.37;;;16.80;;
33327;SDS011;19692;52.998;9.116;2022-11-21T03:22:44;23.70;;;15.63;;
33327;SDS011;19692;52.998;9.116;2022-11-21T03:25:10;27.03;;;16.93;;
33327;SDS011;19692;52.998;9.116;2022-11-21T03:27:35;25.33;;;16.37;;
33327;SDS011;19692;52.998;9.116;2022-11-21T03:30:01;25.03;;;16.67;;
33327;SDS011;19692;52.998;9.116;2022-11-21T03:32:27;25.17;;;16.17;;
33327;SDS011;19692;52.998;9.116;2022-11-21T03:34:53;26.73;;;16.60;;
33327;SDS011;19692;52.998;9.116;2022-11-21T03:37:19;25.70;;;16.17;;
33327;SDS011;19692;52.998;9.116;2022-11-21T03:39:45;23.87;;;15.47;;
33327;SDS011;19692;52.998;9.116;2022-11-21T03:42:10;24.83;;;16.17;;
33327;SDS011;19692;52.998;9.116;2022-11-21T03:44:36;23.93;;;16.23;;
33327;SDS011;19692;52.998;9.116;2022-11-21T03:47:02;26.70;;;16.00;;
33327;SDS011;19692;52.998;9.116;2022-11-21T03:49:28;22.10;;;15.47;;
33327;SDS011;19692;52.998;9.116;2022-11-21T03:51:53;24.53;;;16.57;;
33327;SDS011;19692;52.998;9.116;2022-11-21T03:54:19;27.03;;;16.80;;
33327;SDS011;19692;52.998;9.116;2022-11-21T03:56:45;23.07;;;15.47;;
33327;SDS011;19692;52.998;9.116;2022-11-21T03:59:11;23.13;;;15.83;;
33327;SDS011;19692;52.998;9.116;2022-11-21T04:01:36;24.03;;;15.73;;
33327;SDS011;19692;52.998;9.116;2022-11-21T04:04:02;25.07;;;17.23;;
33327;SDS011;19692;52.998;9.116;2022-11-21T04:06:29;24.10;;;15.63;;
33327;SDS011;19692;52.998;9.116;2022-11-21T04:08:57;25.13;;;16.20;;
33327;SDS011;19692;52.998;9.116;2022-11-21T04:11:23;23.73;;;15.57;;
33327;SDS011;19692;52.998;9.116;2022-11-21T04:13:49;25.00;;;15.37;;
33327;SDS011;19692;52.998;9.116;2022-11-21T04:16:16;23.63;;;15.57;;
33327;SDS011;19692;52.998;9.116;2022-11-21T04:18:42;23.77;;;15.83;;
33327;SDS011;19692;52.998;9.116;2022-11-21T04:21:08;26.60;;;16.50;;
33327;SDS011;19692;52.998;9.116;2022-11-21T04:23:34;26.87;;;16.07;;
33327;SDS011;19692;52.998;9.116;2022-11-21T04:26:00;23.97;;;15.90;;
33327;SDS011;19692;52.998;9.116;2022-11-21T04:28:26;22.57;;;15.60;;
33327;SDS011;19692;52.998;9.116;2022-11-21T04:30:52;24.33;;;15.77;;
33327;SDS011;19692;52.998;9.116;2022-11-21T04:33:17;21.40;;;15.40;;
33327;SDS011;19692;52.998;9.116;2022-11-21T04:35:44;23.30;;;15.50;;
33327;SDS011;19692;52.998;9.116;2022-11-21T04:38:11;24.33;;;15.97;;
33327;SDS011;19692;52.998;9.116;2022-11-21T04:40:37;24.33;;;15.83;;
33327;SDS011;19692;52.998;9.116;2022-11-21T04:43:03;25.20;;;15.40;;
33327;SDS011;19692;52.998;9.116;2022-11-21T04:45:30;22.53;;;14.73;;
33327;SDS011;19692;52.998;9.116;2022-11-21T04:47:56;22.37;;;14.93;;
33327;SDS011;19692;52.998;9.116;2022-11-21T04:50:21;24.90;;;15.23;;
33327;SDS011;19692;52.998;9.116;2022-11-21T04:52:55;24.27;;;16.27;;
33327;SDS011;19692;52.998;9.116;2022-11-21T04:55:22;25.03;;;15.73;;
33327;SDS011;19692;52.998;9.116;2022-11-21T04:57:52;23.87;;;15.53;;
33327;SDS011;19692;52.998;9.116;2022-11-21T05:00:18;30.33;;;17.93;;
33327;SDS011;19692;52.998;9.116;2022-11-21T05:02:45;35.80;;;19.23;;
33327;SDS011;19692;52.998;9.116;2022-11-21T05:05:11;75.93;;;25.90;;
33327;SDS011;19692;52.998;9.116;2022-11-21T05:07:37;58.23;;;24.03;;
33327;SDS011;19692;52.998;9.116;2022-11-21T05:10:06;92.13;;;28.90;;
33327;SDS011;19692;52.998;9.116;2022-11-21T05:12:33;98.20;;;24.87;;
33327;SDS011;19692;52.998;9.116;2022-11-21T05:15:18;51.57;;;23.73;;
33327;SDS011;19692;52.998;9.116;2022-11-21T05:17:44;70.13;;;23.87;;
33327;SDS011;19692;52.998;9.116;2022-11-21T05:20:10;79.60;;;22.20;;
33327;SDS011;19692;52.998;9.116;2022-11-21T05:22:37;67.63;;;22.93;;
33327;SDS011;19692;52.998;9.116;2022-11-21T05:25:03;63.37;;;23.23;;
33327;SDS011;19692;52.998;9.116;2022-11-21T05:27:29;67.23;;;22.07;;
33327;SDS011;19692;52.998;9.116;2022-11-21T05:29:55;72.00;;;21.03;;
33327;SDS011;19692;52.998;9.116;2022-11-21T05:32:20;71.13;;;21.20;;
33327;SDS011;19692;52.998;9.116;2022-11-21T05:34:46;63.80;;;21.00;;
33327;SDS011;19692;52.998;9.116;2022-11-21T05:37:12;65.07;;;21.60;;
33327;SDS011;19692;52.998;9.116;2022-11-21T05:39:37;36.97;;;19.90;;
33327;SDS011;19692;52.998;9.116;2022-11-21T05:42:03;41.10;;;20.13;;
33327;SDS011;19692;52.998;9.116;2022-11-21T05:44:29;46.63;;;18.33;;
33327;SDS011;19692;52.998;9.116;2022-11-21T05:46:55;61.33;;;17.97;;
33327;SDS011;19692;52.998;9.116;2022-11-21T05:49:20;53.50;;;17.60;;
33327;SDS011;19692;52.998;9.116;2022-11-21T05:51:46;58.53;;;18.30;;
33327;SDS011;19692;52.998;9.116;2022-11-21T05:54:12;76.93;;;18.83;;
33327;SDS011;19692;52.998;9.116;2022-11-21T05:56:38;79.43;;;18.03;;
33327;SDS011;19692;52.998;9.116;2022-11-21T05:59:04;133.53;;;20.43;;
33327;SDS011;19692;52.998;9.116;2022-11-21T06:01:30;84.27;;;17.87;;
33327;SDS011;19692;52.998;9.116;2022-11-21T06:04:14;78.30;;;17.17;;
33327;SDS011;19692;52.998;9.116;2022-11-21T06:06:40;100.70;;;18.83;;
33327;SDS011;19692;52.998;9.116;2022-11-21T06:09:06;122.93;;;19.87;;
33327;SDS011;19692;52.998;9.116;2022-11-21T06:11:32;64.67;;;18.00;;
33327;SDS011;19692;52.998;9.116;2022-11-21T06:13:57;154.83;;;20.57;;
33327;SDS011;19692;52.998;9.116;2022-11-21T06:16:23;96.93;;;19.27;;
33327;SDS011;19692;52.998;9.116;2022-11-21T06:18:49;76.43;;;18.80;;
33327;SDS011;19692;52.998;9.116;2022-11-21T06:21:18;171.33;;;20.73;;
33327;SDS011;19692;52.998;9.116;2022-11-21T06:23:46;140.50;;;20.13;;
33327;SDS011;19692;52.998;9.116;2022-11-21T06:26:15;102.37;;;18.73;;
33327;SDS011;19692;52.998;9.116;2022-11-21T06:28:44;77.97;;;18.70;;
33327;SDS011;19692;52.998;9.116;2022-11-21T06:31:12;92.63;;;19.57;;
33327;SDS011;19692;52.998;9.116;2022-11-21T06:33:53;76.73;;;18.20;;
33327;SDS011;19692;52.998;9.116;2022-11-21T06:36:21;95.73;;;20.33;;
33327;SDS011;19692;52.998;9.116;2022-11-21T06:38:46;97.77;;;20.83;;
33327;SDS011;19692;52.998;9.116;2022-11-21T06:43:45;57.77;;;16.93;;
33327;SDS011;19692;52.998;9.116;2022-11-21T06:46:11;111.63;;;18.80;;
33327;SDS011;19692;52.998;9.116;2022-11-21T06:48:38;94.80;;;18.10;;
33327;SDS011;19692;52.998;9.116;2022-11-21T06:51:05;92.00;;;18.50;;
33327;SDS011;19692;52.998;9.116;2022-11-21T06:53:35;66.83;;;18.93;;
33327;SDS011;19692;52.998;9.116;2022-11-21T06:56:01;50.23;;;19.13;;
33327;SDS011;19692;52.998;9.116;2022-11-21T06:58:27;52.43;;;20.10;;
33327;SDS011;19692;52.998;9.116;2022-11-21T07:00:53;105.23;;;21.83;;
33327;SDS011;19692;52.998;9.116;2022-11-21T07:03:20;115.97;;;20.17;;
33327;SDS011;19692;52.998;9.116;2022-11-21T07:05:46;102.33;;;19.40;;
33327;SDS011;19692;52.998;9.116;2022-11-21T07:08:13;92.13;;;19.33;;
33327;SDS011;19692;52.998;9.116;2022-11-21T07:10:38;71.53;;;20.97;;
33327;SDS011;19692;52.998;9.116;2022-11-21T07:13:05;43.80;;;18.77;;
33327;SDS011;19692;52.998;9.116;2022-11-21T07:15:46;36.60;;;17.53;;
33327;SDS011;19692;52.998;9.116;2022-11-21T07:18:15;43.37;;;18.00;;
33327;SDS011;19692;52.998;9.116;2022-11-21T07:20:41;61.17;;;17.97;;
33327;SDS011;19692;52.998;9.116;2022-11-21T07:23:07;75.73;;;18.57;;
33327;SDS011;19692;52.998;9.116;2022-11-21T07:25:33;61.43;;;18.17;;
33327;SDS011;19692;52.998;9.116;2022-11-21T07:27:59;52.87;;;19.63;;
33327;SDS011;19692;52.998;9.116;2022-11-21T07:30:26;68.33;;;18.17;;
33327;SDS011;19692;52.998;9.116;2022-11-21T07:35:26;34.60;;;17.47;;
33327;SDS011;19692;52.998;9.116;2022-11-21T07:37:52;70.60;;;17.93;;
33327;SDS011;19692;52.998;9.116;2022-11-21T07:40:18;40.23;;;18.17;;
33327;SDS011;19692;52.998;9.116;2022-11-21T07:42:45;111.83;;;20.50;;
33327;SDS011;19692;52.998;9.116;2022-11-21T07:45:11;81.87;;;20.50;;
33327;SDS011;19692;52.998;9.116;2022-11-21T07:47:39;75.10;;;17.10;;
33327;SDS011;19692;52.998;9.116;2022-11-21T07:50:06;49.30;;;17.30;;
33327;SDS011;19692;52.998;9.116;2022-11-21T07:52:33;40.33;;;17.43;;
33327;SDS011;19692;52.998;9.116;2022-11-21T07:54:58;57.27;;;16.33;;
33327;SDS011;19692;52.998;9.116;2022-11-21T07:57:26;61.53;;;18.03;;
33327;SDS011;19692;52.998;9.116;2022-11-21T07:59:52;50.77;;;18.83;;
33327;SDS011;19692;52.998;9.116;2022-11-21T08:02:22;119.03;;;20.00;;
33327;SDS011;19692;52.998;9.116;2022-11-21T08:04:50;73.87;;;18.07;;
33327;SDS011;19692;52.998;9.116;2022-11-21T08:07:17;89.00;;;20.23;;
33327;SDS011;19692;52.998;9.116;2022-11-21T08:09:44;73.20;;;16.47;;
33327;SDS011;19692;52.998;9.116;2022-11-21T08:12:10;49.87;;;14.53;;
33327;SDS011;19692;52.998;9.116;2022-11-21T08:14:36;124.27;;;17.03;;
33327;SDS011;19692;52.998;9.116;2022-11-21T08:17:03;77.50;;;17.17;;
33327;SDS011;19692;52.998;9.116;2022-11-21T08:19:30;62.30;;;15.73;;
33327;SDS011;19692;52.998;9.116;2022-11-21T08:21:56;119.83;;;16.93;;
33327;SDS011;19692;52.998;9.116;2022-11-21T08:24:22;90.00;;;18.27;;
33327;SDS011;19692;52.998;9.116;2022-11-21T08:26:48;49.43;;;14.57;;
33327;SDS011;19692;52.998;9.116;2022-11-21T08:29:15;42.70;;;15.30;;
33327;SDS011;19692;52.998;9.116;2022-11-21T08:31:41;67.43;;;16.00;;
33327;SDS011;19692;52.998;9.116;2022-11-21T08:34:07;58.67;;;15.43;;
33327;SDS011;19692;52.998;9.116;2022-11-21T08:36:34;50.30;;;16.43;;
33327;SDS011;19692;52.998;9.116;2022-11-21T08:39:00;54.57;;;15.07;;
33327;SDS011;19692;52.998;9.116;2022-11-21T08:41:25;48.67;;;15.40;;
33327;SDS011;19692;52.998;9.116;2022-11-21T08:44:10;69.50;;;15.43;;
33327;SDS011;19692;52.998;9.116;2022-11-21T08:46:35;54.07;;;17.03;;
33327;SDS011;19692;52.998;9.116;2022-11-21T08:49:07;54.80;;;16.87;;
33327;SDS011;19692;52.998;9.116;2022-11-21T08:51:34;48.00;;;18.53;;
33327;SDS011;19692;52.998;9.116;2022-11-21T08:54:00;63.83;;;17.73;;
33327;SDS011;19692;52.998;9.116;2022-11-21T08:56:26;74.33;;;17.87;;
33327;SDS011;19692;52.998;9.116;2022-11-21T08:58:52;53.23;;;17.90;;
33327;SDS011;19692;52.998;9.116;2022-11-21T09:01:18;88.90;;;19.97;;
33327;SDS011;19692;52.998;9.116;2022-11-21T09:03:44;67.70;;;18.27;;
33327;SDS011;19692;52.998;9.116;2022-11-21T09:06:10;67.90;;;19.53;;
33327;SDS011;19692;52.998;9.116;2022-11-21T09:08:37;51.13;;;18.07;;
33327;SDS011;19692;52.998;9.116;2022-11-21T09:11:04;55.63;;;19.53;;
33327;SDS011;19692;52.998;9.116;2022-11-21T09:13:32;52.47;;;18.23;;
33327;SDS011;19692;52.998;9.116;2022-11-21T09:15:58;35.03;;;19.30;;
33327;SDS011;19692;52.998;9.116;2022-11-21T09:18:43;80.30;;;23.17;;
33327;SDS011;19692;52.998;9.116;2022-11-21T09:21:12;41.60;;;19.83;;
33327;SDS011;19692;52.998;9.116;2022-11-21T09:23:42;66.33;;;21.73;;
33327;SDS011;19692;52.998;9.116;2022-11-21T09:26:08;73.83;;;19.33;;
33327;SDS011;19692;52.998;9.116;2022-11-21T09:28:35;37.60;;;21.00;;
33327;SDS011;19692;52.998;9.116;2022-11-21T09:31:01;53.30;;;21.37;;
33327;SDS011;19692;52.998;9.116;2022-11-21T09:33:27;76.10;;;22.30;;
33327;SDS011;19692;52.998;9.116;2022-11-21T09:35:53;50.80;;;19.90;;
33327;SDS011;19692;52.998;9.116;2022-11-21T09:38:23;46.13;;;20.83;;
33327;SDS011;19692;52.998;9.116;2022-11-21T09:40:51;69.83;;;22.47;;
33327;SDS011;19692;52.998;9.116;2022-11-21T09:44:00;52.20;;;20.40;;
33327;SDS011;19692;52.998;9.116;2022-11-21T09:49:40;35.60;;;20.80;;
33327;SDS011;19692;52.998;9.116;2022-11-21T09:52:08;40.50;;;21.17;;
33327;SDS011;19692;52.998;9.116;2022-11-21T09:54:39;47.23;;;23.50;;
33327;SDS011;19692;52.998;9.116;2022-11-21T09:57:15;56.97;;;23.40;;
33327;SDS011;19692;52.998;9.116;2022-11-21T09:59:44;60.37;;;24.00;;
33327;SDS011;19692;52.998;9.116;2022-11-21T10:02:13;49.67;;;23.20;;
33327;SDS011;19692;52.998;9.116;2022-11-21T10:04:42;48.13;;;23.40;;
33327;SDS011;19692;52.998;9.116;2022-11-21T10:07:11;56.73;;;23.67;;
33327;SDS011;19692;52.998;9.116;2022-11-21T10:15:42;47.77;;;23.97;;
33327;SDS011;19692;52.998;9.116;2022-11-21T10:18:48;56.40;;;24.10;;
33327;SDS011;19692;52.998;9.116;2022-11-21T10:24:54;58.57;;;25.70;;
33327;SDS011;19692;52.998;9.116;2022-11-21T10:27:36;52.97;;;26.67;;
33327;SDS011;19692;52.998;9.116;2022-11-21T10:30:14;44.40;;;26.53;;
33327;SDS011;19692;52.998;9.116;2022-11-21T10:32:44;43.20;;;26.17;;
33327;SDS011;19692;52.998;9.116;2022-11-21T10:37:45;43.37;;;25.57;;
33327;SDS011;19692;52.998;9.116;2022-11-21T10:40:37;41.33;;;24.73;;
33327;SDS011;19692;52.998;9.116;2022-11-21T10:43:10;50.67;;;27.67;;
33327;SDS011;19692;52.998;9.116;2022-11-21T10:46:05;38.80;;;23.53;;
33327;SDS011;19692;52.998;9.116;2022-11-21T10:48:31;41.47;;;25.13;;
33327;SDS011;19692;52.998;9.116;2022-11-21T10:51:11;42.43;;;23.93;;
33327;SDS011;19692;52.998;9.116;2022-11-21T10:54:06;41.00;;;24.70;;
33327;SDS011;19692;52.998;9.116;2022-11-21T10:56:53;40.53;;;24.97;;
33327;SDS011;19692;52.998;9.116;2022-11-21T10:59:25;39.80;;;24.47;;
33327;SDS011;19692;52.998;9.116;2022-11-21T11:01:55;41.93;;;25.17;;
33327;SDS011;19692;52.998;9.116;2022-11-21T11:04:31;43.87;;;25.53;;
33327;SDS011;19692;52.998;9.116;2022-11-21T11:06:57;39.30;;;25.33;;
33327;SDS011;19692;52.998;9.116;2022-11-21T11:09:52;39.90;;;23.97;;
33327;SDS011;19692;52.998;9.116;2022-11-21T11:12:47;41.33;;;24.67;;
33327;SDS011;19692;52.998;9.116;2022-11-21T11:15:33;39.73;;;25.30;;
33327;SDS011;19692;52.998;9.116;2022-11-21T11:18:04;36.47;;;24.33;;
33327;SDS011;19692;52.998;9.116;2022-11-21T11:20:39;38.83;;;24.23;;
33327;SDS011;19692;52.998;9.116;2022-11-21T11:23:14;35.43;;;23.90;;
33327;SDS011;19692;52.998;9.116;2022-11-21T11:25:55;35.67;;;24.07;;
33327;SDS011;19692;52.998;9.116;2022-11-21T11:28:23;32.43;;;21.03;;
33327;SDS011;19692;52.998;9.116;2022-11-21T11:31:00;29.60;;;20.30;;
33327;SDS011;19692;52.998;9.116;2022-11-21T11:35:52;27.83;;;19.57;;
33327;SDS011;19692;52.998;9.116;2022-11-21T11:38:20;26.07;;;18.93;;
33327;SDS011;19692;52.998;9.116;2022-11-21T11:40:51;25.93;;;19.07;;
33327;SDS011;19692;52.998;9.116;2022-11-21T11:46:52;26.53;;;18.30;;
33327;SDS011;19692;52.998;9.116;2022-11-21T11:50:09;21.47;;;16.87;;
33327;SDS011;19692;52.998;9.116;2022-11-21T11:52:56;22.80;;;17.00;;
33327;SDS011;19692;52.998;9.116;2022-11-21T11:56:00;24.60;;;17.23;;
33327;SDS011;19692;52.998;9.116;2022-11-21T11:58:35;22.83;;;17.37;;
33327;SDS011;19692;52.998;9.116;2022-11-21T12:04:32;22.90;;;17.27;;
33327;SDS011;19692;52.998;9.116;2022-11-21T12:07:18;25.30;;;17.83;;
33327;SDS011;19692;52.998;9.116;2022-11-21T12:13:36;25.30;;;18.33;;
33327;SDS011;19692;52.998;9.116;2022-11-21T12:16:04;22.67;;;17.90;;
33327;SDS011;19692;52.998;9.116;2022-11-21T12:21:32;22.23;;;16.87;;
33327;SDS011;19692;52.998;9.116;2022-11-21T12:23:57;21.67;;;15.83;;
33327;SDS011;19692;52.998;9.116;2022-11-21T12:26:35;20.60;;;15.97;;
33327;SDS011;19692;52.998;9.116;2022-11-21T12:33:00;21.80;;;16.23;;
33327;SDS011;19692;52.998;9.116;2022-11-21T12:44:17;25.77;;;19.90;;
33327;SDS011;19692;52.998;9.116;2022-11-21T12:47:52;23.17;;;17.73;;
33327;SDS011;19692;52.998;9.116;2022-11-21T12:57:18;20.73;;;15.97;;
33327;SDS011;19692;52.998;9.116;2022-11-21T13:02:48;22.67;;;17.97;;
33327;SDS011;19692;52.998;9.116;2022-11-21T13:05:49;21.53;;;16.93;;
33327;SDS011;19692;52.998;9.116;2022-11-21T13:08:18;21.40;;;16.60;;
33327;SDS011;19692;52.998;9.116;2022-11-21T13:13:47;20.83;;;16.23;;
33327;SDS011;19692;52.998;9.116;2022-11-21T13:16:23;19.10;;;15.00;;
33327;SDS011;19692;52.998;9.116;2022-11-21T13:19:13;21.23;;;16.07;;
33327;SDS011;19692;52.998;9.116;2022-11-21T13:21:48;19.70;;;15.50;;
33327;SDS011;19692;52.998;9.116;2022-11-21T13:30:26;18.13;;;15.67;;
33327;SDS011;19692;52.998;9.116;2022-11-21T13:32:50;18.60;;;15.43;;
33327;SDS011;19692;52.998;9.116;2022-11-21T13:45:50;16.90;;;14.30;;
33327;SDS011;19692;52.998;9.116;2022-11-21T14:08:20;17.97;;;14.53;;
33327;SDS011;19692;52.998;9.116;2022-11-21T14:10:52;18.33;;;14.70;;
33327;SDS011;19692;52.998;9.116;2022-11-21T14:16:02;18.10;;;14.47;;
33327;SDS011;19692;52.998;9.116;2022-11-21T14:18:54;19.87;;;16.17;;
33327;SDS011;19692;52.998;9.116;2022-11-21T14:21:23;21.10;;;15.23;;
33327;SDS011;19692;52.998;9.116;2022-11-21T14:23:52;18.97;;;15.10;;
33327;SDS011;19692;52.998;9.116;2022-11-21T14:26:33;19.00;;;15.40;;
33327;SDS011;19692;52.998;9.116;2022-11-21T14:29:18;19.27;;;15.30;;
33327;SDS011;19692;52.998;9.116;2022-11-21T14:31:53;20.20;;;15.73;;
33327;SDS011;19692;52.998;9.116;2022-11-21T14:34:29;17.43;;;14.67;;
33327;SDS011;19692;52.998;9.116;2022-11-21T14:37:03;22.97;;;16.33;;
33327;SDS011;19692;52.998;9.116;2022-11-21T14:39:31;21.30;;;16.07;;
33327;SDS011;19692;52.998;9.116;2022-11-21T14:41:59;20.70;;;16.03;;
33327;SDS011;19692;52.998;9.116;2022-11-21T14:44:28;20.87;;;16.10;;
33327;SDS011;19692;52.998;9.116;2022-11-21T14:47:14;20.27;;;16.43;;
33327;SDS011;19692;52.998;9.116;2022-11-21T14:49:49;21.13;;;16.00;;
33327;SDS011;19692;52.998;9.116;2022-11-21T14:52:20;21.33;;;16.27;;
33327;SDS011;19692;52.998;9.116;2022-11-21T14:55:01;21.27;;;16.47;;
33327;SDS011;19692;52.998;9.116;2022-11-21T14:57:40;21.77;;;16.13;;
33327;SDS011;19692;52.998;9.116;2022-11-21T15:00:07;24.03;;;17.23;;
33327;SDS011;19692;52.998;9.116;2022-11-21T15:02:38;22.90;;;16.83;;
33327;SDS011;19692;52.998;9.116;2022-11-21T15:05:05;21.37;;;16.00;;
33327;SDS011;19692;52.998;9.116;2022-11-21T15:07:41;22.37;;;16.87;;
33327;SDS011;19692;52.998;9.116;2022-11-21T15:10:13;22.27;;;16.13;;
33327;SDS011;19692;52.998;9.116;2022-11-21T15:15:24;24.13;;;16.67;;
33327;SDS011;19692;52.998;9.116;2022-11-21T15:18:05;22.07;;;16.53;;
33327;SDS011;19692;52.998;9.116;2022-11-21T15:20:37;26.57;;;19.60;;
33327;SDS011;19692;52.998;9.116;2022-11-21T15:23:03;21.70;;;16.77;;
33327;SDS011;19692;52.998;9.116;2022-11-21T15:25:43;23.70;;;17.03;;
33327;SDS011;19692;52.998;9.116;2022-11-21T15:28:14;23.83;;;17.63;;
33327;SDS011;19692;52.998;9.116;2022-11-21T15:30:42;24.37;;;17.87;;
33327;SDS011;19692;52.998;9.116;2022-11-21T15:33:16;26.40;;;18.60;;
33327;SDS011;19692;52.998;9.116;2022-11-21T15:35:48;28.33;;;19.43;;
33327;SDS011;19692;52.998;9.116;2022-11-21T15:43:45;26.77;;;19.40;;
33327;SDS011;19692;52.998;9.116;2022-11-21T15:46:20;27.90;;;19.37;;
33327;SDS011;19692;52.998;9.116;2022-11-21T15:48:49;27.40;;;18.83;;
33327;SDS011;19692;52.998;9.116;2022-11-21T15:51:30;27.53;;;19.47;;
33327;SDS011;19692;52.998;9.116;2022-11-21T15:53:59;28.60;;;19.97;;
33327;SDS011;19692;52.998;9.116;2022-11-21T15:56:25;26.80;;;18.33;;
33327;SDS011;19692;52.998;9.116;2022-11-21T15:58:51;28.30;;;18.27;;
33327;SDS011;19692;52.998;9.116;2022-11-21T16:01:18;26.37;;;18.83;;
33327;SDS011;19692;52.998;9.116;2022-11-21T16:03:50;26.07;;;18.57;;
33327;SDS011;19692;52.998;9.116;2022-11-21T16:06:20;25.00;;;17.53;;
33327;SDS011;19692;52.998;9.116;2022-11-21T16:08:46;28.17;;;18.70;;
33327;SDS011;19692;52.998;9.116;2022-11-21T16:11:22;25.57;;;18.33;;
33327;SDS011;19692;52.998;9.116;2022-11-21T16:13:54;27.20;;;19.10;;
33327;SDS011;19692;52.998;9.116;2022-11-21T16:16:26;28.97;;;19.73;;
33327;SDS011;19692;52.998;9.116;2022-11-21T16:18:57;27.93;;;18.37;;
33327;SDS011;19692;52.998;9.116;2022-11-21T16:21:24;27.23;;;18.30;;
33327;SDS011;19692;52.998;9.116;2022-11-21T16:23:50;27.97;;;18.53;;
33327;SDS011;19692;52.998;9.116;2022-11-21T16:26:16;28.83;;;19.10;;
33327;SDS011;19692;52.998;9.116;2022-11-21T16:28:43;30.37;;;19.73;;
33327;SDS011;19692;52.998;9.116;2022-11-21T16:31:19;31.20;;;19.37;;
33327;SDS011;19692;52.998;9.116;2022-11-21T16:33:50;31.07;;;19.23;;
33327;SDS011;19692;52.998;9.116;2022-11-21T16:36:19;32.37;;;20.67;;
33327;SDS011;19692;52.998;9.116;2022-11-21T16:38:50;30.30;;;20.33;;
33327;SDS011;19692;52.998;9.116;2022-11-21T16:41:17;35.60;;;21.57;;
33327;SDS011;19692;52.998;9.116;2022-11-21T16:43:46;31.30;;;19.97;;
33327;SDS011;19692;52.998;9.116;2022-11-21T16:46:18;30.67;;;20.70;;